Time;durP1;ratioP1;P1;durP2;ratioP2;P2;SDS_P1;SDS_P2;PMS_P1;PMS_P2;Temp;Humidity;BMP_temperature;BMP_pressure;BME280_temperature;BME280_humidity;BME280_pressure;Samples;Min_cycle;Max_cycle;Signal;HPM_P1;HPM_P2
2022/07/18 00:01:18;;;;;;;5.70;2.40;;;;;13.06;98316.00;;;;111203;1247;41243;-74
2022/07/18 00:03:47;;;;;;;6.50;2.60;;;;;12.64;98317.00;;;;111278;1247;41561;-75
2022/07/18 00:06:17;;;;;;;7.50;2.30;;;;;12.48;98325.60;;;;111347;1247;41710;-78
2022/07/18 00:08:47;;;;;;;7.00;2.20;;;;;12.26;98317.60;;;;111192;1248;41597;-75
2022/07/18 00:11:16;;;;;;;5.10;2.00;;;;;12.40;98322.40;;;;111230;1246;41190;-76
2022/07/18 00:13:47;;;;;;;4.20;1.80;;;;;12.40;98319.60;;;;111230;1247;42525;-76
2022/07/18 00:16:17;;;;;;;4.40;1.80;;;;;12.40;98323.20;;;;111044;1247;41164;-76
2022/07/18 00:18:46;;;;;;;4.70;1.70;;;;;12.50;98319.80;;;;111151;1247;41253;-76
2022/07/18 00:21:16;;;;;;;3.80;1.50;;;;;12.50;98318.20;;;;111327;1247;41226;-75
2022/07/18 00:23:46;;;;;;;6.90;1.90;;;;;12.50;98312.40;;;;111396;1247;41238;-73
2022/07/18 00:26:16;;;;;;;4.00;1.70;;;;;12.50;98311.00;;;;111366;1246;41356;-77
2022/07/18 00:28:45;;;;;;;6.50;1.80;;;;;12.50;98312.20;;;;111147;1247;41432;-75
2022/07/18 00:31:14;;;;;;;6.00;2.10;;;;;12.46;98315.40;;;;111193;1248;42505;-76
2022/07/18 00:33:45;;;;;;;6.50;2.60;;;;;12.40;98318.80;;;;111464;1247;42062;-78
2022/07/18 00:36:15;;;;;;;5.20;2.20;;;;;12.20;98323.20;;;;111267;1247;41587;-74
2022/07/18 00:38:44;;;;;;;6.10;2.10;;;;;12.20;98326.60;;;;110989;1248;41258;-78
2022/07/18 00:41:16;;;;;;;4.30;2.00;;;;;12.18;98330.20;;;;111256;1248;41631;-73
2022/07/18 00:43:46;;;;;;;5.80;2.10;;;;;12.20;98327.20;;;;111157;1247;41122;-73
2022/07/18 00:46:15;;;;;;;5.20;2.00;;;;;12.20;98331.80;;;;111073;1249;41145;-75
2022/07/18 00:48:44;;;;;;;5.60;1.90;;;;;12.20;98326.80;;;;111151;1247;41140;-73
2022/07/18 00:51:16;;;;;;;4.70;2.00;;;;;12.20;98331.60;;;;111217;1247;41155;-70
2022/07/18 00:53:47;;;;;;;5.80;2.20;;;;;12.30;98328.00;;;;111312;1247;42142;-73
2022/07/18 00:56:18;;;;;;;6.00;2.00;;;;;12.30;98330.20;;;;111364;1247;40902;-73
2022/07/18 00:58:48;;;;;;;4.20;1.90;;;;;12.20;98331.00;;;;111216;1247;41332;-72
2022/07/18 01:04:28;;;;;;;5.20;2.00;;;;;11.90;98337.20;;;;111232;1247;41174;-77
2022/07/18 01:06:58;;;;;;;;;;;;;11.80;98333.00;;;;111221;1247;42222;-74
2022/07/18 01:09:29;;;;;;;4.60;1.90;;;;;11.70;98333.00;;;;111193;1247;41649;-74
2022/07/18 01:12:00;;;;;;;4.50;1.80;;;;;11.70;98336.40;;;;111310;1246;41148;-75
2022/07/18 01:14:30;;;;;;;3.30;1.60;;;;;11.66;98339.60;;;;111097;1248;42064;-70
2022/07/18 01:17:00;;;;;;;4.30;1.80;;;;;11.70;98339.00;;;;111121;1248;41971;-68
2022/07/18 01:19:30;;;;;;;4.70;1.90;;;;;11.66;98339.00;;;;111428;1247;41126;-70
2022/07/18 01:22:01;;;;;;;3.40;1.70;;;;;11.60;98340.80;;;;111268;1247;40767;-74
2022/07/18 01:24:30;;;;;;;3.10;1.50;;;;;11.60;98335.00;;;;111356;1246;41372;-75
2022/07/18 01:27:00;;;;;;;3.60;1.80;;;;;11.60;98335.60;;;;111194;1247;41164;-74
2022/07/18 01:29:31;;;;;;;3.40;1.80;;;;;11.60;98330.00;;;;110896;1250;41252;-75
2022/07/18 01:32:06;;;;;;;3.10;1.60;;;;;11.50;98335.00;;;;111187;1247;41169;-75
2022/07/18 01:34:36;;;;;;;4.20;1.90;;;;;11.50;98337.40;;;;111244;1247;41142;-74
2022/07/18 01:37:06;;;;;;;2.70;1.70;;;;;11.50;98337.40;;;;111173;1248;41606;-76
2022/07/18 01:39:35;;;;;;;4.50;1.90;;;;;11.50;98339.80;;;;111279;1247;41805;-74
2022/07/18 01:42:07;;;;;;;4.10;1.90;;;;;11.50;98336.40;;;;111026;1249;41399;-74
2022/07/18 01:44:38;;;;;;;3.70;1.80;;;;;11.50;98336.00;;;;111170;1247;41383;-74
2022/07/18 01:47:09;;;;;;;3.40;1.70;;;;;11.50;98334.60;;;;111071;1247;41149;-72
2022/07/18 01:49:40;;;;;;;3.30;1.60;;;;;11.40;98331.20;;;;111240;1247;42276;-73
2022/07/18 01:52:11;;;;;;;4.10;1.70;;;;;11.40;98333.60;;;;111242;1248;41143;-69
2022/07/18 01:54:43;;;;;;;6.40;2.00;;;;;11.40;98335.60;;;;111313;1246;41124;-74
2022/07/18 01:57:13;;;;;;;3.40;1.60;;;;;11.40;98334.80;;;;111387;1246;42085;-75
2022/07/18 01:59:44;;;;;;;4.60;1.70;;;;;11.34;98332.40;;;;111236;1247;40867;-76
2022/07/18 02:02:14;;;;;;;4.00;1.80;;;;;11.30;98336.80;;;;111013;1248;41139;-73
2022/07/18 02:05:01;;;;;;;3.00;1.60;;;;;11.30;98337.60;;;;111124;1247;41353;-76
2022/07/18 02:07:34;;;;;;;3.60;1.70;;;;;11.24;98339.60;;;;111274;1246;41127;-75
2022/07/18 02:10:10;;;;;;;3.80;1.70;;;;;11.10;98347.20;;;;111196;1247;41133;-71
2022/07/18 02:12:40;;;;;;;4.50;2.00;;;;;11.00;98343.20;;;;111125;1249;41405;-76
2022/07/18 02:15:11;;;;;;;6.00;2.00;;;;;10.90;98345.20;;;;111193;1249;41154;-73
2022/07/18 02:17:44;;;;;;;4.60;1.90;;;;;10.90;98350.80;;;;111164;1247;41204;-73
2022/07/18 02:20:15;;;;;;;4.50;1.80;;;;;10.80;98345.80;;;;111097;1250;41333;-71
2022/07/18 02:22:48;;;;;;;3.10;1.80;;;;;10.80;98346.60;;;;111140;1249;41155;-73
2022/07/18 02:25:17;;;;;;;;;;;;;10.78;98349.60;;;;111214;1248;41282;-72
2022/07/18 02:27:48;;;;;;;2.70;1.60;;;;;10.70;98349.00;;;;111196;1247;41322;-76
2022/07/18 02:30:18;;;;;;;;;;;;;10.70;98354.00;;;;111256;1247;41626;-73
2022/07/18 02:32:49;;;;;;;3.80;1.90;;;;;10.70;98354.60;;;;111218;1247;41151;-74
2022/07/18 02:35:19;;;;;;;4.40;1.90;;;;;10.70;98358.40;;;;111200;1248;41134;-74
2022/07/18 02:37:50;;;;;;;4.00;1.70;;;;;10.70;98359.20;;;;111497;1245;41158;-76
2022/07/18 02:40:21;;;;;;;3.00;1.60;;;;;10.70;98355.00;;;;111174;1247;41130;-76
2022/07/18 02:42:52;;;;;;;2.90;1.60;;;;;10.70;98359.40;;;;111268;1247;41830;-73
2022/07/18 02:45:22;;;;;;;4.40;1.90;;;;;10.70;98361.20;;;;111222;1247;41266;-71
2022/07/18 02:47:53;;;;;;;3.40;1.80;;;;;10.70;98364.40;;;;111186;1247;41486;-72
2022/07/18 02:50:26;;;;;;;5.30;2.00;;;;;10.68;98369.20;;;;111315;1247;41169;-72
2022/07/18 02:52:56;;;;;;;5.00;2.10;;;;;10.66;98375.00;;;;111302;1246;41607;-72
2022/07/18 02:55:27;;;;;;;4.40;2.00;;;;;10.60;98367.00;;;;111362;1247;42368;-69
2022/07/18 02:57:57;;;;;;;6.10;2.50;;;;;10.60;98365.80;;;;111197;1247;41705;-72
2022/07/18 03:00:26;;;;;;;3.80;1.90;;;;;10.60;98373.00;;;;111277;1247;41244;-73
2022/07/18 03:02:57;;;;;;;9.60;2.30;;;;;10.60;98375.40;;;;111214;1247;41157;-73
2022/07/18 03:05:28;;;;;;;3.70;1.60;;;;;10.60;98373.80;;;;111227;1247;41162;-72
2022/07/18 03:07:58;;;;;;;5.20;2.00;;;;;10.60;98379.40;;;;111271;1245;41179;-72
2022/07/18 03:10:28;;;;;;;4.20;2.00;;;;;10.60;98379.80;;;;111421;1246;41225;-73
2022/07/18 03:12:57;;;;;;;2.80;1.70;;;;;10.60;98383.00;;;;111224;1247;41701;-72
2022/07/18 03:15:28;;;;;;;3.60;1.80;;;;;10.60;98378.60;;;;111266;1247;41362;-71
2022/07/18 03:17:59;;;;;;;6.90;2.20;;;;;10.60;98383.40;;;;111243;1247;41237;-74
2022/07/18 03:20:29;;;;;;;4.40;1.90;;;;;10.52;98385.60;;;;111349;1247;41160;-72
2022/07/18 03:22:59;;;;;;;4.40;2.10;;;;;10.50;98383.00;;;;111365;1246;41150;-73
2022/07/18 03:25:28;;;;;;;5.60;2.10;;;;;10.50;98382.80;;;;111415;1245;41322;-72
2022/07/18 03:27:58;;;;;;;3.90;1.90;;;;;10.50;98391.00;;;;111259;1246;41146;-71
2022/07/18 03:30:28;;;;;;;3.90;2.00;;;;;10.50;98390.40;;;;111306;1247;41367;-72
2022/07/18 03:32:57;;;;;;;5.30;2.20;;;;;10.50;98393.40;;;;111278;1247;41149;-72
2022/07/18 03:35:31;;;;;;;5.70;2.10;;;;;10.50;98394.40;;;;111432;1247;41171;-72
2022/07/18 03:38:00;;;;;;;4.90;2.00;;;;;10.58;98398.00;;;;111498;1247;41259;-72
2022/07/18 03:40:30;;;;;;;5.70;2.20;;;;;10.60;98395.40;;;;111322;1247;41135;-72
2022/07/18 03:42:59;;;;;;;3.70;1.80;;;;;10.70;98402.40;;;;111452;1246;41257;-73
2022/07/18 03:45:29;;;;;;;10.40;2.10;;;;;10.70;98401.40;;;;111327;1246;41250;-72
2022/07/18 03:47:58;;;;;;;6.70;2.30;;;;;10.80;98396.40;;;;111360;1246;41155;-72
2022/07/18 03:50:28;;;;;;;8.60;2.60;;;;;10.86;98396.00;;;;111467;1246;41130;-73
2022/07/18 03:52:58;;;;;;;5.50;2.30;;;;;10.90;98401.60;;;;111389;1246;41391;-72
2022/07/18 03:55:28;;;;;;;8.90;2.80;;;;;11.00;98403.40;;;;111320;1246;42871;-72
2022/07/18 03:57:57;;;;;;;6.60;2.50;;;;;11.00;98402.00;;;;111158;1247;41142;-72
2022/07/18 04:00:27;;;;;;;8.80;2.30;;;;;11.00;98402.00;;;;111175;1247;41750;-72
2022/07/18 04:02:57;;;;;;;5.30;2.00;;;;;11.10;98402.80;;;;111232;1247;41467;-71
2022/07/18 04:05:32;;;;;;;5.30;2.30;;;;;11.10;98403.00;;;;111334;1247;41286;-74
2022/07/18 04:08:02;;;;;;;5.50;2.10;;;;;11.16;98396.20;;;;111178;1248;41618;-71
2022/07/18 04:10:31;;;;;;;4.90;2.20;;;;;11.20;98395.60;;;;111178;1247;41230;-71
2022/07/18 04:13:01;;;;;;;4.50;1.90;;;;;11.20;98396.20;;;;111193;1247;41612;-72
2022/07/18 04:15:31;;;;;;;7.50;2.30;;;;;11.30;98393.80;;;;111268;1247;42385;-72
2022/07/18 04:18:00;;;;;;;4.30;1.90;;;;;11.40;98397.60;;;;111353;1247;41120;-74
2022/07/18 04:20:30;;;;;;;4.40;2.00;;;;;11.58;98395.80;;;;111219;1247;41375;-73
2022/07/18 04:23:01;;;;;;;5.70;2.00;;;;;11.92;98396.20;;;;111459;1246;41692;-72
2022/07/18 04:25:39;;;;;;;4.40;2.00;;;;;12.48;98391.80;;;;111196;1246;41167;-73
2022/07/18 04:28:11;;;;;;;5.40;2.10;;;;;13.14;98390.00;;;;111201;1247;41128;-72
2022/07/18 04:30:42;;;;;;;5.40;2.20;;;;;13.76;98386.60;;;;110915;1249;41157;-71
2022/07/18 04:33:11;;;;;;;;;;;;;14.42;98391.20;;;;111247;1247;41258;-72
2022/07/18 04:35:41;;;;;;;4.70;2.20;;;;;15.18;98380.60;;;;111297;1246;41486;-72
2022/07/18 04:38:11;;;;;;;6.40;2.60;;;;;15.80;98377.20;;;;111285;1247;42122;-72
2022/07/18 04:40:41;;;;;;;5.70;2.10;;;;;16.38;98369.20;;;;111231;1245;41487;-74
2022/07/18 04:43:10;;;;;;;8.80;2.50;;;;;16.90;98365.60;;;;111224;1247;41176;-73
2022/07/18 04:45:39;;;;;;;6.80;2.40;;;;;17.40;98367.00;;;;111301;1244;41242;-72
2022/07/18 04:48:09;;;;;;;5.60;2.10;;;;;17.78;98372.00;;;;111493;1244;41133;-71
2022/07/18 04:50:38;;;;;;;6.60;2.30;;;;;18.10;98365.20;;;;111457;1247;41152;-71
2022/07/18 04:53:07;;;;;;;4.70;2.10;;;;;18.40;98364.00;;;;111144;1248;41157;-70
2022/07/18 04:55:37;;;;;;;8.10;2.50;;;;;18.90;98356.00;;;;111229;1247;42063;-68
2022/07/18 04:58:06;;;;;;;9.80;2.50;;;;;19.40;98346.20;;;;111141;1244;42277;-69
2022/07/18 05:00:36;;;;;;;4.90;2.10;;;;;19.52;98336.00;;;;111199;1245;41166;-72
2022/07/18 05:03:06;;;;;;;4.00;1.80;;;;;20.00;98333.80;;;;111488;1246;41131;-72
2022/07/18 05:05:35;;;;;;;7.40;1.90;;;;;20.30;98333.20;;;;111299;1247;41158;-71
2022/07/18 05:08:05;;;;;;;4.10;1.90;;;;;20.80;98330.20;;;;111216;1247;42052;-72
2022/07/18 05:10:34;;;;;;;4.40;2.00;;;;;21.30;98336.20;;;;111497;1246;41190;-72
2022/07/18 05:13:04;;;;;;;4.00;1.80;;;;;21.70;98333.20;;;;111470;1246;41358;-71
2022/07/18 05:15:33;;;;;;;4.60;1.80;;;;;22.10;98332.60;;;;111198;1246;41675;-72
2022/07/18 05:18:07;;;;;;;5.30;1.80;;;;;22.44;98331.60;;;;111537;1245;41266;-72
2022/07/18 05:20:36;;;;;;;6.20;2.10;;;;;22.70;98332.00;;;;111326;1244;41525;-73
2022/07/18 05:23:14;;;;;;;4.80;1.60;;;;;22.94;98335.40;;;;111266;1246;41148;-72
2022/07/18 05:25:43;;;;;;;3.80;1.60;;;;;22.96;98330.40;;;;111213;1247;42358;-73
2022/07/18 05:28:12;;;;;;;3.70;1.60;;;;;22.90;98335.00;;;;111246;1246;41141;-73
2022/07/18 05:30:41;;;;;;;3.30;1.50;;;;;23.10;98337.00;;;;111224;1246;40907;-72
2022/07/18 05:33:11;;;;;;;4.00;1.50;;;;;23.26;98331.20;;;;111198;1246;41952;-72
2022/07/18 05:35:40;;;;;;;2.20;1.40;;;;;23.60;98333.60;;;;110994;1245;40872;-71
2022/07/18 05:38:09;;;;;;;2.10;1.40;;;;;23.80;98336.20;;;;111188;1247;41269;-73
2022/07/18 05:40:38;;;;;;;3.40;1.50;;;;;23.54;98355.80;;;;111044;1247;41717;-72
2022/07/18 05:43:07;;;;;;;2.90;1.30;;;;;22.90;98361.40;;;;111157;1247;41145;-72
2022/07/18 05:45:37;;;;;;;3.10;1.50;;;;;22.26;98365.20;;;;111152;1247;41149;-72
2022/07/18 05:48:08;;;;;;;3.80;1.60;;;;;21.78;98366.60;;;;111390;1245;41708;-73
2022/07/18 05:50:44;;;;;;;4.40;1.50;;;;;21.40;98370.60;;;;111313;1247;42016;-72
2022/07/18 05:53:19;;;;;;;3.40;1.50;;;;;21.24;98369.40;;;;111238;1245;41143;-72
2022/07/18 05:55:57;;;;;;;2.60;1.50;;;;;21.42;98369.20;;;;111224;1247;40794;-73
2022/07/18 05:58:26;;;;;;;3.20;1.60;;;;;22.22;98369.20;;;;111200;1247;42259;-72
2022/07/18 06:00:55;;;;;;;3.80;1.70;;;;;23.12;98361.00;;;;111557;1246;41305;-73
2022/07/18 06:03:24;;;;;;;4.50;1.50;;;;;23.90;98361.20;;;;111141;1247;41181;-74
2022/07/18 06:05:53;;;;;;;2.80;1.50;;;;;24.68;98360.00;;;;111251;1247;41982;-72
2022/07/18 06:08:27;;;;;;;2.30;1.40;;;;;25.30;98355.20;;;;111527;1246;41144;-70
2022/07/18 06:10:56;;;;;;;2.10;1.30;;;;;25.90;98362.20;;;;111298;1247;41190;-73
2022/07/18 06:13:25;;;;;;;3.20;1.40;;;;;26.60;98362.80;;;;111479;1246;41123;-72
2022/07/18 06:15:54;;;;;;;3.10;1.50;;;;;27.10;98360.40;;;;111209;1246;41021;-73
2022/07/18 06:18:23;;;;;;;2.00;1.20;;;;;27.50;98362.00;;;;111350;1245;41117;-71
2022/07/18 06:20:52;;;;;;;2.50;1.30;;;;;27.66;98352.00;;;;111474;1244;41138;-74
2022/07/18 06:23:21;;;;;;;3.40;1.60;;;;;28.10;98349.80;;;;111245;1247;41923;-71
2022/07/18 06:25:50;;;;;;;4.20;1.60;;;;;28.06;98350.40;;;;111216;1247;41191;-72
2022/07/18 06:28:19;;;;;;;5.00;1.50;;;;;27.70;98356.40;;;;111247;1245;41545;-74
2022/07/18 06:30:48;;;;;;;7.60;1.50;;;;;27.40;98357.60;;;;111272;1245;41138;-72
2022/07/18 06:33:18;;;;;;;4.20;1.60;;;;;28.00;98352.60;;;;111210;1247;41149;-74
2022/07/18 06:35:47;;;;;;;4.30;1.60;;;;;28.60;98351.20;;;;111545;1246;41230;-73
2022/07/18 06:38:17;;;;;;;2.10;1.20;;;;;28.46;98349.40;;;;111364;1246;41962;-73
2022/07/18 06:40:46;;;;;;;2.40;1.30;;;;;28.70;98348.00;;;;111397;1246;41957;-72
2022/07/18 06:43:19;;;;;;;4.70;1.50;;;;;29.56;98349.20;;;;111254;1247;41130;-69
2022/07/18 06:45:48;;;;;;;2.30;1.30;;;;;30.10;98346.00;;;;111269;1247;41137;-75
2022/07/18 06:48:18;;;;;;;2.40;1.50;;;;;30.80;98345.40;;;;111319;1245;42361;-74
2022/07/18 06:50:47;;;;;;;2.70;1.40;;;;;30.58;98339.80;;;;111131;1248;41209;-75
2022/07/18 06:53:16;;;;;;;4.00;1.40;;;;;31.20;98339.00;;;;111468;1246;41733;-76
2022/07/18 06:55:45;;;;;;;1.80;1.20;;;;;31.80;98334.80;;;;111235;1247;41602;-75
2022/07/18 06:58:14;;;;;;;4.80;1.50;;;;;32.60;98336.00;;;;111338;1246;41132;-76
2022/07/18 07:00:43;;;;;;;8.40;1.40;;;;;33.00;98332.80;;;;111025;1249;42006;-75
2022/07/18 07:03:12;;;;;;;3.40;1.30;;;;;33.40;98330.60;;;;111460;1247;42375;-75
2022/07/18 07:05:41;;;;;;;2.40;1.20;;;;;33.84;98325.00;;;;111210;1247;41145;-76
2022/07/18 07:08:10;;;;;;;4.30;1.60;;;;;34.30;98322.00;;;;111288;1246;41272;-75
2022/07/18 07:10:40;;;;;;;2.90;1.40;;;;;33.02;98325.60;;;;111175;1245;41237;-72
2022/07/18 07:13:09;;;;;;;3.50;1.40;;;;;32.44;98325.80;;;;111545;1247;41114;-75
2022/07/18 07:15:43;;;;;;;2.40;1.20;;;;;31.80;98327.00;;;;111287;1247;41178;-76
2022/07/18 07:18:12;;;;;;;2.60;1.30;;;;;31.52;98327.80;;;;111355;1245;41185;-72
2022/07/18 07:20:41;;;;;;;2.90;1.30;;;;;30.88;98337.40;;;;111280;1246;42365;-75
2022/07/18 07:23:11;;;;;;;4.00;1.60;;;;;30.06;98340.80;;;;111289;1247;41247;-76
2022/07/18 07:25:40;;;;;;;3.20;1.20;;;;;29.34;98345.40;;;;111501;1245;41130;-75
2022/07/18 07:28:09;;;;;;;2.80;1.40;;;;;28.96;98342.20;;;;111174;1247;41967;-75
2022/07/18 07:30:38;;;;;;;3.20;1.30;;;;;28.38;98346.60;;;;111321;1247;41246;-74
2022/07/18 07:33:08;;;;;;;3.40;1.30;;;;;28.10;98345.40;;;;111224;1247;41859;-75
2022/07/18 07:35:37;;;;;;;2.30;1.30;;;;;27.92;98344.20;;;;111291;1245;41346;-75
2022/07/18 07:38:06;;;;;;;3.70;1.50;;;;;27.72;98343.80;;;;111205;1247;41260;-74
2022/07/18 07:40:35;;;;;;;2.50;1.20;;;;;27.12;98343.60;;;;111304;1246;41405;-76
2022/07/18 07:43:12;;;;;;;2.20;1.20;;;;;26.92;98338.00;;;;111151;1247;41148;-75
2022/07/18 07:45:43;;;;;;;2.20;1.20;;;;;26.82;98339.00;;;;111160;1246;41636;-75
2022/07/18 07:48:12;;;;;;;2.80;1.30;;;;;26.90;98341.20;;;;111326;1247;41703;-77
2022/07/18 07:50:42;;;;;;;2.70;1.30;;;;;26.90;98341.60;;;;111223;1247;41133;-73
2022/07/18 07:53:11;;;;;;;4.50;1.60;;;;;26.90;98338.80;;;;111361;1244;41241;-77
2022/07/18 07:55:41;;;;;;;2.70;1.40;;;;;26.58;98343.40;;;;111419;1245;41152;-75
2022/07/18 07:58:10;;;;;;;5.00;1.60;;;;;26.04;98341.60;;;;111349;1246;41304;-77
2022/07/18 08:00:39;;;;;;;2.80;1.20;;;;;25.50;98340.80;;;;111423;1246;41517;-76
2022/07/18 08:03:09;;;;;;;3.10;1.20;;;;;25.60;98339.20;;;;111363;1245;41397;-76
2022/07/18 08:05:48;;;;;;;2.80;1.30;;;;;25.50;98343.20;;;;111292;1247;41124;-76
2022/07/18 08:08:18;;;;;;;2.20;1.30;;;;;25.40;98345.60;;;;111504;1245;41256;-69
2022/07/18 08:10:47;;;;;;;2.30;1.30;;;;;25.50;98339.80;;;;111155;1248;42393;-79
2022/07/18 08:13:16;;;;;;;4.10;1.30;;;;;25.50;98338.80;;;;111321;1245;41298;-78
2022/07/18 08:15:46;;;;;;;2.10;1.20;;;;;24.68;98344.80;;;;111168;1246;41598;-77
2022/07/18 08:18:15;;;;;;;2.80;1.50;;;;;24.80;98343.80;;;;111162;1248;41317;-80
2022/07/18 08:20:44;;;;;;;3.90;1.50;;;;;24.58;98344.20;;;;111470;1245;41128;-79
2022/07/18 08:23:13;;;;;;;2.50;1.10;;;;;24.74;98340.60;;;;111160;1247;41130;-78
2022/07/18 08:25:43;;;;;;;1.90;1.30;;;;;24.74;98339.00;;;;111149;1248;41137;-78
2022/07/18 08:28:13;;;;;;;2.20;1.30;;;;;24.86;98341.60;;;;111419;1246;42077;-78
2022/07/18 08:30:43;;;;;;;3.70;1.40;;;;;24.80;98338.60;;;;111446;1245;41135;-79
2022/07/18 08:33:12;;;;;;;1.80;1.20;;;;;25.18;98332.60;;;;111467;1246;41160;-78
2022/07/18 08:35:41;;;;;;;2.60;1.20;;;;;25.56;98335.40;;;;111457;1245;40909;-76
2022/07/18 08:38:11;;;;;;;2.60;1.10;;;;;25.94;98326.80;;;;110881;1250;41610;-78
2022/07/18 08:40:41;;;;;;;2.10;1.20;;;;;26.32;98329.80;;;;111263;1248;41182;-81
2022/07/18 08:43:10;;;;;;;3.10;1.30;;;;;26.66;98330.20;;;;111368;1247;41200;-75
2022/07/18 08:45:56;;;;;;;6.20;1.50;;;;;26.80;98322.40;;;;111284;1245;41157;-76
2022/07/18 08:48:26;;;;;;;2.30;1.10;;;;;26.86;98324.60;;;;111239;1247;41193;-75
2022/07/18 08:50:55;;;;;;;5.70;1.30;;;;;27.10;98323.80;;;;111266;1245;41012;-77
2022/07/18 08:53:24;;;;;;;1.80;1.10;;;;;27.30;98326.00;;;;111613;1244;41126;-77
2022/07/18 08:55:53;;;;;;;2.20;1.20;;;;;27.38;98328.20;;;;111140;1245;41360;-76
2022/07/18 08:58:22;;;;;;;2.30;1.20;;;;;27.60;98324.80;;;;111115;1248;41497;-77
2022/07/18 09:01:12;;;;;;;2.80;1.20;;;;;27.90;98323.40;;;;111207;1249;41194;-77
2022/07/18 09:03:41;;;;;;;5.00;1.40;;;;;28.16;98315.00;;;;111518;1246;42362;-76
2022/07/18 09:06:13;;;;;;;3.40;1.50;;;;;27.58;98316.00;;;;111313;1247;41176;-77
2022/07/18 09:08:59;;;;;;;5.00;1.40;;;;;27.82;98312.20;;;;111198;1245;41152;-76
2022/07/18 09:11:29;;;;;;;3.40;1.40;;;;;27.50;98317.60;;;;111392;1246;41617;-78
2022/07/18 09:14:32;;;;;;;;;;;;;27.76;98311.40;;;;111308;1247;41686;-76
2022/07/18 09:17:22;;;;;;;2.30;1.20;;;;;28.22;98312.60;;;;111248;1247;42152;-76
2022/07/18 09:20:03;;;;;;;1.90;1.00;;;;;29.08;98313.20;;;;111238;1245;41137;-76
2022/07/18 09:22:34;;;;;;;2.00;1.10;;;;;29.94;98308.40;;;;111591;1245;41318;-76
2022/07/18 09:25:14;;;;;;;4.10;1.50;;;;;31.06;98301.20;;;;111187;1247;41129;-77
2022/07/18 09:27:44;;;;;;;;;;;;;31.02;98295.20;;;;111205;1245;41149;-76
2022/07/18 09:30:26;;;;;;;2.30;1.00;;;;;30.42;98300.40;;;;111361;1244;41597;-78
2022/07/18 09:33:08;;;;;;;3.30;1.20;;;;;30.70;98296.20;;;;111165;1245;41141;-77
2022/07/18 09:35:43;;;;;;;5.20;1.40;;;;;30.82;98290.60;;;;111374;1244;41692;-77
2022/07/18 09:38:15;;;;;;;2.40;1.20;;;;;31.58;98295.40;;;;111211;1248;41164;-76
2022/07/18 09:40:47;;;;;;;1.30;1.20;;;;;32.18;98293.00;;;;111238;1247;41143;-78
2022/07/18 09:43:19;;;;;;;4.10;1.40;;;;;32.70;98286.40;;;;111394;1246;41455;-72
2022/07/18 09:45:50;;;;;;;3.70;1.20;;;;;33.30;98284.60;;;;111392;1244;41126;-76
2022/07/18 09:48:21;;;;;;;2.70;1.20;;;;;33.60;98287.40;;;;111282;1246;41937;-74
2022/07/18 09:50:51;;;;;;;3.00;1.20;;;;;34.18;98284.20;;;;111581;1244;41269;-75
2022/07/18 09:53:25;;;;;;;2.50;1.00;;;;;34.70;98277.40;;;;111278;1244;41179;-75
2022/07/18 09:56:03;;;;;;;2.30;1.10;;;;;34.78;98268.20;;;;111301;1245;41254;-76
2022/07/18 09:58:53;;;;;;;1.10;1.00;;;;;35.40;98267.80;;;;111219;1246;41939;-77
2022/07/18 10:01:23;;;;;;;3.00;1.10;;;;;35.20;98258.60;;;;111179;1247;41143;-76
2022/07/18 10:03:52;;;;;;;2.00;1.00;;;;;34.88;98255.60;;;;111191;1247;41738;-75
2022/07/18 10:06:22;;;;;;;3.10;1.30;;;;;34.40;98252.20;;;;111183;1247;41609;-77
2022/07/18 10:08:51;;;;;;;;;;;;;33.94;98254.20;;;;111192;1247;41150;-75
2022/07/18 10:11:20;;;;;;;3.10;1.20;;;;;33.52;98248.20;;;;110977;1249;41395;-75
2022/07/18 10:13:50;;;;;;;1.80;1.00;;;;;32.80;98256.60;;;;111189;1247;41143;-75
2022/07/18 10:16:19;;;;;;;2.10;1.10;;;;;32.90;98251.80;;;;111236;1249;41010;-76
2022/07/18 10:18:48;;;;;;;3.80;1.10;;;;;33.20;98251.40;;;;111179;1246;40953;-76
2022/07/18 10:21:20;;;;;;;4.00;1.20;;;;;33.14;98254.20;;;;111190;1247;41153;-76
2022/07/18 10:23:51;;;;;;;2.50;1.00;;;;;33.18;98250.20;;;;111144;1247;41140;-78
2022/07/18 10:26:24;;;;;;;1.50;1.20;;;;;33.60;98250.40;;;;111190;1244;42338;-78
2022/07/18 10:28:56;;;;;;;2.80;1.40;;;;;33.80;98243.60;;;;111232;1245;41142;-74
2022/07/18 10:31:38;;;;;;;2.30;1.40;;;;;33.90;98238.60;;;;111353;1246;41291;-78
2022/07/18 10:34:07;;;;;;;5.30;1.40;;;;;34.04;98239.40;;;;111135;1248;41892;-76
2022/07/18 10:36:39;;;;;;;1.60;1.10;;;;;33.80;98231.20;;;;111233;1245;41758;-79
2022/07/18 10:39:09;;;;;;;4.50;1.20;;;;;33.50;98235.40;;;;111249;1247;41713;-78
2022/07/18 10:41:38;;;;;;;3.00;1.20;;;;;33.28;98233.80;;;;111263;1247;41127;-79
2022/07/18 10:44:29;;;;;;;2.80;1.00;;;;;32.46;98237.00;;;;111224;1245;41332;-77
2022/07/18 10:47:08;;;;;;;3.70;1.10;;;;;32.18;98229.80;;;;111322;1247;41120;-77
2022/07/18 10:49:47;;;;;;;;;;;;;32.20;98230.40;;;;111165;1247;41941;-79
2022/07/18 10:52:28;;;;;;;1.30;0.90;;;;;32.40;98231.00;;;;111194;1248;41256;-75
2022/07/18 10:58:01;;;;;;;2.20;1.20;;;;;32.02;98233.60;;;;111209;1247;41220;-75
2022/07/18 11:00:35;;;;;;;4.20;1.40;;;;;32.42;98233.40;;;;111324;1247;41149;-76
2022/07/18 11:03:05;;;;;;;2.60;1.20;;;;;32.94;98230.00;;;;111228;1247;41687;-77
2022/07/18 11:05:45;;;;;;;2.50;1.40;;;;;32.54;98218.60;;;;111522;1245;41986;-77
2022/07/18 11:08:18;;;;;;;;;;;;;33.08;98219.60;;;;111240;1247;41146;-77
2022/07/18 11:10:49;;;;;;;3.30;1.40;;;;;32.96;98216.40;;;;111430;1245;42002;-76
2022/07/18 11:16:08;;;;;;;2.40;1.30;;;;;33.40;98212.20;;;;111276;1247;41123;-77
2022/07/18 11:18:57;;;;;;;2.30;1.10;;;;;34.14;98212.60;;;;111246;1246;41174;-78
2022/07/18 11:21:28;;;;;;;3.50;1.30;;;;;35.10;98218.40;;;;111255;1245;40808;-76
2022/07/18 11:24:08;;;;;;;1.30;1.00;;;;;35.20;98206.60;;;;111182;1247;41701;-74
2022/07/18 11:26:42;;;;;;;2.10;1.10;;;;;35.36;98206.80;;;;111205;1247;41146;-78
2022/07/18 11:29:14;;;;;;;3.40;1.10;;;;;36.26;98209.40;;;;111305;1244;42614;-75
2022/07/18 11:31:48;;;;;;;6.20;1.40;;;;;36.12;98205.00;;;;111070;1247;41946;-78
2022/07/18 11:34:22;;;;;;;4.30;1.50;;;;;35.34;98204.80;;;;110986;1250;41272;-76
2022/07/18 11:37:03;;;;;;;1.40;0.90;;;;;34.78;98198.40;;;;111173;1247;41977;-75
2022/07/18 11:39:34;;;;;;;1.30;1.00;;;;;34.40;98196.80;;;;111042;1249;41153;-76
2022/07/18 11:42:05;;;;;;;2.30;1.10;;;;;35.24;98187.00;;;;111183;1247;41262;-75
2022/07/18 11:44:34;;;;;;;3.10;1.30;;;;;35.60;98190.00;;;;111150;1248;41411;-76
2022/07/18 11:47:08;;;;;;;1.50;0.70;;;;;36.18;98185.00;;;;111203;1247;41799;-75
2022/07/18 11:49:37;;;;;;;1.70;1.10;;;;;37.16;98178.20;;;;111134;1247;41618;-76
2022/07/18 11:52:07;;;;;;;1.30;0.90;;;;;38.04;98172.00;;;;111085;1248;41259;-78
2022/07/18 11:54:36;;;;;;;;;;;;;37.98;98178.80;;;;111170;1249;41733;-77
2022/07/18 11:57:05;;;;;;;1.50;1.00;;;;;38.10;98178.00;;;;111211;1247;40962;-79
2022/07/18 11:59:39;;;;;;;2.10;0.80;;;;;38.18;98180.20;;;;111229;1247;41172;-75
2022/07/18 12:02:09;;;;;;;2.00;0.90;;;;;38.54;98171.40;;;;111183;1247;41346;-78
2022/07/18 12:04:38;;;;;;;;;;;;;38.44;98170.80;;;;111219;1247;41168;-79
2022/07/18 12:07:25;;;;;;;2.90;1.20;;;;;38.44;98172.40;;;;111427;1245;41139;-76
2022/07/18 12:09:55;;;;;;;1.10;0.90;;;;;38.78;98167.20;;;;111131;1247;41603;-76
2022/07/18 12:12:24;;;;;;;2.30;1.10;;;;;38.06;98165.40;;;;111529;1246;42203;-77
2022/07/18 12:14:58;;;;;;;4.00;1.10;;;;;37.92;98164.00;;;;111257;1247;42866;-77
2022/07/18 12:17:28;;;;;;;1.30;0.90;;;;;37.10;98159.60;;;;111161;1247;42056;-78
2022/07/18 12:20:16;;;;;;;1.30;0.80;;;;;36.84;98166.20;;;;111295;1247;41130;-77
2022/07/18 12:23:04;;;;;;;0.70;0.70;;;;;36.98;98170.40;;;;111311;1247;41148;-78
2022/07/18 12:25:43;;;;;;;1.50;1.00;;;;;36.08;98163.60;;;;111187;1246;41249;-80
2022/07/18 12:28:17;;;;;;;2.40;1.30;;;;;34.66;98174.60;;;;111190;1248;41364;-77
2022/07/18 12:30:46;;;;;;;3.10;1.00;;;;;34.24;98174.20;;;;111123;1248;41258;-74
2022/07/18 12:33:15;;;;;;;1.90;1.10;;;;;33.30;98176.00;;;;111544;1246;41129;-76
2022/07/18 12:35:44;;;;;;;2.00;1.10;;;;;32.90;98170.20;;;;111477;1247;41623;-78
2022/07/18 12:38:15;;;;;;;1.50;1.00;;;;;32.54;98171.40;;;;111314;1245;41861;-80
2022/07/18 12:40:51;;;;;;;3.90;1.10;;;;;32.00;98167.20;;;;111168;1246;42420;-79